Time;durP1;ratioP1;P1;durP2;ratioP2;P2;SDS_P1;SDS_P2;PMS_P1;PMS_P2;Temp;Humidity;BMP_temperature;BMP_pressure;BME280_temperature;BME280_humidity;BME280_pressure;Samples;Min_cycle;Max_cycle;Signal;HPM_P1;HPM_P2
2022/03/16 00:01:52;;;;;;;;;;;9.60;99.90;;;;;;5096091;28;20342;-42
2022/03/16 00:04:17;;;;;;;;;;;9.60;99.90;;;;;;5095467;28;20433;-41
2022/03/16 00:06:43;;;;;;;;;;;9.60;99.90;;;;;;5095411;28;19908;-41
2022/03/16 00:09:08;;;;;;;;;;;9.50;99.90;;;;;;5095149;28;19918;-41
2022/03/16 00:11:34;;;;;;;;;;;9.40;99.90;;;;;;5095621;28;19919;-41
2022/03/16 00:13:59;;;;;;;;;;;9.40;99.90;;;;;;5095426;28;20010;-41
2022/03/16 00:16:25;;;;;;;;;;;9.50;99.90;;;;;;5095180;28;19957;-42
2022/03/16 00:18:50;;;;;;;;;;;9.40;99.90;;;;;;5094084;28;20011;-42
2022/03/16 00:21:16;;;;;;;;;;;9.50;99.90;;;;;;5095212;28;20267;-43
2022/03/16 00:23:41;;;;;;;;;;;9.40;99.90;;;;;;5094863;28;19915;-42
2022/03/16 00:26:07;;;;;;;;;;;9.30;99.90;;;;;;5095470;28;19908;-41
2022/03/16 00:28:33;;;;;;;;;;;9.30;99.90;;;;;;5095218;28;19912;-41
2022/03/16 00:30:58;;;;;;;;;;;9.20;99.90;;;;;;5095242;28;20328;-43
2022/03/16 00:33:24;;;;;;;;;;;9.10;99.90;;;;;;5095105;28;19944;-41
2022/03/16 00:35:49;;;;;;;;;;;9.10;99.90;;;;;;5095471;28;19909;-41
2022/03/16 00:38:16;;;;;;;;;;;9.00;99.90;;;;;;5094843;28;19913;-42
2022/03/16 00:40:42;;;;;;;;;;;8.90;99.90;;;;;;5095167;28;20386;-42
2022/03/16 00:43:08;;;;;;;;;;;8.90;99.90;;;;;;5095002;28;19951;-41
2022/03/16 00:45:33;;;;;;;;;;;8.80;99.90;;;;;;5095001;28;19909;-42
2022/03/16 00:47:59;;;;;;;;;;;8.70;99.90;;;;;;5094718;28;19991;-42
2022/03/16 00:50:24;;;;;;;;;;;8.70;99.90;;;;;;5094921;28;20323;-42
2022/03/16 00:52:50;;;;;;;;;;;8.60;99.90;;;;;;5094852;28;19908;-41
2022/03/16 00:55:16;;;;;;;;;;;8.70;99.90;;;;;;5094417;28;19912;-41
2022/03/16 00:57:41;;;;;;;;;;;8.70;99.90;;;;;;5094873;28;20248;-41
2022/03/16 01:00:07;;;;;;;;;;;8.70;99.90;;;;;;5089985;28;19912;-41
2022/03/16 01:02:33;;;;;;;;;;;8.60;99.90;;;;;;5092706;28;19919;-42
2022/03/16 01:04:58;;;;;;;;;;;8.60;99.90;;;;;;5092667;28;19908;-42
2022/03/16 01:07:24;;;;;;;;;;;8.60;99.90;;;;;;5092658;28;19933;-42
2022/03/16 01:09:49;;;;;;;;;;;8.60;99.90;;;;;;5091286;28;19916;-44
2022/03/16 01:12:15;;;;;;;;;;;8.50;99.90;;;;;;5092272;28;20362;-44
2022/03/16 01:14:41;;;;;;;;;;;8.60;99.90;;;;;;5092449;28;19908;-43
2022/03/16 01:17:06;;;;;;;;;;;8.50;99.90;;;;;;5092603;28;19916;-42
2022/03/16 01:19:34;;;;;;;;;;;8.50;99.90;;;;;;5094248;28;19908;-42
2022/03/16 01:22:04;;;;;;;;;;;8.50;99.90;;;;;;5094039;28;20363;-43
2022/03/16 01:24:29;;;;;;;;;;;8.50;99.90;;;;;;5091162;28;19908;-42
2022/03/16 01:26:55;;;;;;;;;;;8.60;99.90;;;;;;5093620;28;19916;-41
2022/03/16 01:29:20;;;;;;;;;;;8.50;99.90;;;;;;5092859;28;19924;-43
2022/03/16 01:31:46;;;;;;;;;;;8.50;99.90;;;;;;5096142;28;20294;-41
2022/03/16 01:34:11;;;;;;;;;;;8.60;99.90;;;;;;5092335;28;20356;-42
2022/03/16 01:36:38;;;;;;;;;;;8.40;99.90;;;;;;5092318;28;19914;-40
2022/03/16 01:39:04;;;;;;;;;;;8.40;99.90;;;;;;5092815;28;19912;-41
2022/03/16 01:41:29;;;;;;;;;;;8.30;99.90;;;;;;5092411;28;19915;-41
2022/03/16 01:43:56;;;;;;;;;;;8.30;99.90;;;;;;5092804;28;19913;-42
2022/03/16 01:46:21;;;;;;;;;;;8.40;99.90;;;;;;5092309;28;20045;-42
2022/03/16 01:48:47;;;;;;;;;;;8.40;99.90;;;;;;5092827;28;19998;-42
2022/03/16 01:51:13;;;;;;;;;;;8.30;99.90;;;;;;5092297;28;20007;-43
2022/03/16 01:53:41;;;;;;;;;;;8.40;99.90;;;;;;5092581;28;19908;-41
2022/03/16 01:56:07;;;;;;;;;;;8.50;99.90;;;;;;5092514;28;19927;-41
2022/03/16 01:58:33;;;;;;;;;;;8.60;99.90;;;;;;5092056;28;19912;-41
2022/03/16 02:00:59;;;;;;;;;;;8.40;99.90;;;;;;5092170;28;20337;-41
2022/03/16 02:03:24;;;;;;;;;;;8.40;99.90;;;;;;5092206;28;19908;-41
2022/03/16 02:05:50;;;;;;;;;;;8.30;99.90;;;;;;5089993;28;20248;-41
2022/03/16 02:08:16;;;;;;;;;;;8.40;99.90;;;;;;5095439;28;19912;-42
2022/03/16 02:10:42;;;;;;;;;;;8.40;99.90;;;;;;5096037;28;19916;-46
2022/03/16 02:13:10;;;;;;;;;;;8.50;99.90;;;;;;5095488;28;20004;-41
2022/03/16 02:15:36;;;;;;;;;;;8.50;99.90;;;;;;5096377;28;19923;-42
2022/03/16 02:18:01;;;;;;;;;;;8.40;99.90;;;;;;5095633;28;19912;-40
2022/03/16 02:20:27;;;;;;;;;;;8.60;99.90;;;;;;5095323;28;20309;-41
2022/03/16 02:22:56;;;;;;;;;;;8.50;99.90;;;;;;5095622;28;20337;-45
2022/03/16 02:25:23;;;;;;;;;;;8.50;99.90;;;;;;5095323;28;19908;-43
2022/03/16 02:27:48;;;;;;;;;;;8.50;99.90;;;;;;5095873;28;19909;-42
2022/03/16 02:30:14;;;;;;;;;;;8.50;99.90;;;;;;5096278;28;20399;-42
2022/03/16 02:32:39;;;;;;;;;;;8.40;99.90;;;;;;5097290;28;19915;-41
2022/03/16 02:35:05;;;;;;;;;;;8.50;99.90;;;;;;5097340;28;19912;-42
2022/03/16 02:37:31;;;;;;;;;;;8.60;99.90;;;;;;5096082;28;20320;-41
2022/03/16 02:39:56;;;;;;;;;;;8.50;99.90;;;;;;5097069;28;19908;-41
2022/03/16 02:42:23;;;;;;;;;;;8.50;99.90;;;;;;5097206;28;19944;-41
2022/03/16 02:44:49;;;;;;;;;;;8.60;99.90;;;;;;5096914;28;19914;-41
2022/03/16 02:47:14;;;;;;;;;;;8.60;99.90;;;;;;5097127;28;19908;-41
2022/03/16 02:49:40;;;;;;;;;;;8.60;99.90;;;;;;5096952;28;20023;-41
2022/03/16 02:52:07;;;;;;;;;;;8.60;99.90;;;;;;5097126;28;19919;-40
2022/03/16 02:54:32;;;;;;;;;;;8.40;99.90;;;;;;5095839;28;19912;-41
2022/03/16 02:56:58;;;;;;;;;;;8.30;99.90;;;;;;5096764;28;19908;-41
2022/03/16 02:59:23;;;;;;;;;;;8.30;99.90;;;;;;5095663;28;19908;-42
2022/03/16 03:01:49;;;;;;;;;;;8.20;99.90;;;;;;5096898;28;19908;-40
2022/03/16 03:04:15;;;;;;;;;;;8.20;99.90;;;;;;5096735;28;19915;-40
2022/03/16 03:06:40;;;;;;;;;;;8.10;99.90;;;;;;5097123;28;19912;-40
2022/03/16 03:09:06;;;;;;;;;;;8.20;99.90;;;;;;5096745;28;20011;-41
2022/03/16 03:11:31;;;;;;;;;;;8.20;99.90;;;;;;5096268;28;19912;-44
2022/03/16 03:13:57;;;;;;;;;;;8.20;99.90;;;;;;5096610;28;19916;-42
2022/03/16 03:16:23;;;;;;;;;;;8.30;99.90;;;;;;5096293;28;19955;-42
2022/03/16 03:18:48;;;;;;;;;;;8.20;99.90;;;;;;5095515;28;20316;-42
2022/03/16 03:21:14;;;;;;;;;;;8.30;99.90;;;;;;5096543;28;20008;-41
2022/03/16 03:23:39;;;;;;;;;;;8.30;99.90;;;;;;5096487;28;19961;-42
2022/03/16 03:26:05;;;;;;;;;;;8.20;99.90;;;;;;5096435;28;20266;-42
2022/03/16 03:28:30;;;;;;;;;;;8.20;99.90;;;;;;5096407;28;19909;-41
2022/03/16 03:30:56;;;;;;;;;;;8.10;99.90;;;;;;5096327;28;19920;-40
2022/03/16 03:33:21;;;;;;;;;;;8.20;99.90;;;;;;5096563;28;19908;-42
2022/03/16 03:35:48;;;;;;;;;;;8.20;99.90;;;;;;5095863;28;19951;-41
2022/03/16 03:38:14;;;;;;;;;;;8.30;99.90;;;;;;5095939;28;19908;-41
2022/03/16 03:40:40;;;;;;;;;;;8.30;99.90;;;;;;5094902;28;20244;-42
2022/03/16 03:43:05;;;;;;;;;;;8.30;99.90;;;;;;5096058;28;19915;-42
2022/03/16 03:45:31;;;;;;;;;;;8.10;99.90;;;;;;5096084;28;19909;-41
2022/03/16 03:47:57;;;;;;;;;;;8.20;99.90;;;;;;5095897;28;19908;-41
2022/03/16 03:50:22;;;;;;;;;;;8.00;99.90;;;;;;5095681;28;19923;-41
2022/03/16 03:52:48;;;;;;;;;;;8.00;99.90;;;;;;5094525;28;19908;-41
2022/03/16 03:55:14;;;;;;;;;;;8.00;99.90;;;;;;5095470;28;19931;-42
2022/03/16 03:57:39;;;;;;;;;;;8.00;99.90;;;;;;5095753;28;19961;-41
2022/03/16 04:00:05;;;;;;;;;;;8.00;99.90;;;;;;5095485;28;19912;-40
2022/03/16 04:02:31;;;;;;;;;;;7.90;99.90;;;;;;5095718;28;19955;-41
2022/03/16 04:04:56;;;;;;;;;;;8.00;99.90;;;;;;5095710;28;19958;-41
2022/03/16 04:07:22;;;;;;;;;;;8.00;99.90;;;;;;5095326;28;19962;-42
2022/03/16 04:09:50;;;;;;;;;;;8.10;99.90;;;;;;5095081;28;19916;-41
2022/03/16 04:12:17;;;;;;;;;;;8.10;99.90;;;;;;5095094;28;19919;-41
2022/03/16 04:14:42;;;;;;;;;;;8.10;99.90;;;;;;5095031;28;19912;-41
2022/03/16 04:17:08;;;;;;;;;;;7.90;99.90;;;;;;5095448;28;20284;-42
2022/03/16 04:19:33;;;;;;;;;;;8.00;99.90;;;;;;5095403;28;19915;-42
2022/03/16 04:21:59;;;;;;;;;;;7.90;99.90;;;;;;5095329;28;19919;-40
2022/03/16 04:24:24;;;;;;;;;;;7.80;99.90;;;;;;5094902;28;19908;-41
2022/03/16 04:26:50;;;;;;;;;;;7.80;99.90;;;;;;5094918;28;19916;-41
2022/03/16 04:29:15;;;;;;;;;;;7.80;99.90;;;;;;5094515;28;20257;-41
2022/03/16 04:31:41;;;;;;;;;;;7.90;99.90;;;;;;5094630;28;19912;-41
2022/03/16 04:34:06;;;;;;;;;;;7.90;99.90;;;;;;5093715;28;20014;-41
2022/03/16 04:36:32;;;;;;;;;;;7.60;99.90;;;;;;5094787;28;19908;-41
2022/03/16 04:38:57;;;;;;;;;;;7.40;99.90;;;;;;5095269;28;19911;-41
2022/03/16 04:41:23;;;;;;;;;;;7.20;99.90;;;;;;5094981;28;19916;-41
2022/03/16 04:43:49;;;;;;;;;;;7.30;99.90;;;;;;5094892;28;19912;-41
2022/03/16 04:46:14;;;;;;;;;;;7.20;99.90;;;;;;5094284;28;19915;-42
2022/03/16 04:48:40;;;;;;;;;;;7.30;99.90;;;;;;5094357;28;19969;-41
2022/03/16 04:51:06;;;;;;;;;;;7.30;99.90;;;;;;5094276;28;19920;-41
2022/03/16 04:53:31;;;;;;;;;;;7.30;99.90;;;;;;5094783;28;19952;-40
2022/03/16 04:55:57;;;;;;;;;;;7.30;99.90;;;;;;5093297;28;19951;-41
2022/03/16 04:58:23;;;;;;;;;;;7.30;99.90;;;;;;5093348;28;19908;-41
2022/03/16 05:00:48;;;;;;;;;;;7.40;99.90;;;;;;5094634;28;19908;-42
2022/03/16 05:03:14;;;;;;;;;;;7.50;99.90;;;;;;5094217;28;19958;-42
2022/03/16 05:05:39;;;;;;;;;;;7.40;99.90;;;;;;5094071;28;20274;-40
2022/03/16 05:08:05;;;;;;;;;;;7.30;99.90;;;;;;5094433;28;19919;-41
2022/03/16 05:10:31;;;;;;;;;;;7.00;99.90;;;;;;5094162;28;20015;-41
2022/03/16 05:12:56;;;;;;;;;;;6.80;99.90;;;;;;5093835;28;19985;-42
2022/03/16 05:15:22;;;;;;;;;;;6.80;99.90;;;;;;5094117;28;20003;-42
2022/03/16 05:17:47;;;;;;;;;;;6.70;99.90;;;;;;5092847;28;20312;-41
2022/03/16 05:20:13;;;;;;;;;;;6.50;99.90;;;;;;5094238;28;20018;-41
2022/03/16 05:22:43;;;;;;;;;;;6.50;99.90;;;;;;5093771;28;19991;-41
2022/03/16 05:25:09;;;;;;;;;;;6.50;99.90;;;;;;5093859;28;20251;-42
2022/03/16 05:27:35;;;;;;;;;;;6.40;99.90;;;;;;5093901;28;19957;-42
2022/03/16 05:30:00;;;;;;;;;;;6.40;99.90;;;;;;5093905;28;19928;-42
2022/03/16 05:32:26;;;;;;;;;;;6.40;99.90;;;;;;5094004;28;19953;-41
2022/03/16 05:34:51;;;;;;;;;;;6.50;99.90;;;;;;5093619;28;20320;-42
2022/03/16 05:37:17;;;;;;;;;;;6.40;99.90;;;;;;5093860;28;19912;-40
2022/03/16 05:39:42;;;;;;;;;;;6.40;99.90;;;;;;5093834;28;19908;-42
2022/03/16 05:42:08;;;;;;;;;;;6.50;99.90;;;;;;5092107;28;19950;-42
2022/03/16 05:44:34;;;;;;;;;;;6.50;99.90;;;;;;5093867;28;19966;-41
2022/03/16 05:47:00;;;;;;;;;;;6.60;99.90;;;;;;5093769;28;19909;-40
2022/03/16 05:49:28;;;;;;;;;;;6.60;99.90;;;;;;5092386;28;19920;-42
2022/03/16 05:51:53;;;;;;;;;;;6.60;99.90;;;;;;5093805;28;20286;-41
2022/03/16 05:54:19;;;;;;;;;;;6.60;99.90;;;;;;5093762;28;19908;-41
2022/03/16 05:56:44;;;;;;;;;;;6.60;99.90;;;;;;5093603;28;20443;-41
2022/03/16 05:59:10;;;;;;;;;;;6.40;99.90;;;;;;5092845;28;19908;-41
2022/03/16 06:01:35;;;;;;;;;;;6.50;99.90;;;;;;5092059;28;19931;-42
2022/03/16 06:04:01;;;;;;;;;;;6.30;99.90;;;;;;5093396;28;19908;-40
2022/03/16 06:06:29;;;;;;;;;;;6.50;99.90;;;;;;5092638;28;19908;-42
2022/03/16 06:08:55;;;;;;;;;;;6.20;99.90;;;;;;5094930;28;19908;-40
2022/03/16 06:11:20;;;;;;;;;;;6.20;99.90;;;;;;5090527;28;19915;-41
2022/03/16 06:13:46;;;;;;;;;;;6.30;99.90;;;;;;5092239;28;19962;-42
2022/03/16 06:16:11;;;;;;;;;;;6.30;99.90;;;;;;5080375;28;19912;-41
2022/03/16 06:18:37;;;;;;;;;;;6.40;99.90;;;;;;5088525;28;19909;-42
2022/03/16 06:21:02;;;;;;;;;;;6.30;99.90;;;;;;5079213;28;19920;-41
2022/03/16 06:23:29;;;;;;;;;;;6.40;99.90;;;;;;5078977;28;19912;-41
2022/03/16 06:25:54;;;;;;;;;;;6.50;99.90;;;;;;5074289;28;19908;-41
2022/03/16 06:28:20;;;;;;;;;;;6.50;99.90;;;;;;5073383;28;19912;-41
2022/03/16 06:30:45;;;;;;;;;;;6.50;99.90;;;;;;5085212;28;19924;-41
2022/03/16 06:33:11;;;;;;;;;;;6.60;99.90;;;;;;5103017;28;20343;-41
2022/03/16 06:35:36;;;;;;;;;;;6.50;99.90;;;;;;5077594;28;19912;-42
2022/03/16 06:38:02;;;;;;;;;;;6.50;99.90;;;;;;5090613;28;19999;-45
2022/03/16 06:40:27;;;;;;;;;;;6.70;99.90;;;;;;5082456;28;19977;-45
2022/03/16 06:42:54;;;;;;;;;;;6.60;99.90;;;;;;5086789;28;20278;-41
2022/03/16 06:45:20;;;;;;;;;;;6.60;99.90;;;;;;5089372;28;19935;-42
2022/03/16 06:47:46;;;;;;;;;;;6.50;99.90;;;;;;5101509;28;19919;-41
2022/03/16 06:50:12;;;;;;;;;;;6.60;99.90;;;;;;5088998;28;19921;-42
2022/03/16 06:52:39;;;;;;;;;;;6.60;99.90;;;;;;5089776;28;19919;-43
2022/03/16 06:55:06;;;;;;;;;;;6.80;99.90;;;;;;5089605;28;19912;-42
2022/03/16 06:57:31;;;;;;;;;;;6.70;99.90;;;;;;5075653;28;19913;-42
2022/03/16 06:59:57;;;;;;;;;;;7.00;99.90;;;;;;5075694;28;19931;-41
2022/03/16 07:02:22;;;;;;;;;;;7.00;99.90;;;;;;5076004;28;19928;-41
2022/03/16 07:04:48;;;;;;;;;;;7.10;99.90;;;;;;5076049;28;19955;-41
2022/03/16 07:07:13;;;;;;;;;;;7.10;99.90;;;;;;5075564;28;20357;-43
2022/03/16 07:09:39;;;;;;;;;;;7.10;99.90;;;;;;5075457;28;19922;-41
2022/03/16 07:12:05;;;;;;;;;;;7.00;99.90;;;;;;5075803;28;19912;-41
2022/03/16 07:14:30;;;;;;;;;;;7.00;99.90;;;;;;5074119;28;19909;-40
2022/03/16 07:16:56;;;;;;;;;;;6.80;99.90;;;;;;5075544;28;19970;-41
2022/03/16 07:19:21;;;;;;;;;;;6.80;99.90;;;;;;5075425;28;19908;-42
2022/03/16 07:21:47;;;;;;;;;;;6.80;99.90;;;;;;5075556;28;19916;-42
2022/03/16 07:24:12;;;;;;;;;;;6.90;99.90;;;;;;5075178;28;19931;-42
2022/03/16 07:26:39;;;;;;;;;;;7.00;99.90;;;;;;5075589;28;20267;-42
2022/03/16 07:29:05;;;;;;;;;;;7.10;99.90;;;;;;5074974;28;20248;-41
2022/03/16 07:31:30;;;;;;;;;;;7.10;99.90;;;;;;5075780;28;19915;-41
2022/03/16 07:33:56;;;;;;;;;;;7.10;99.90;;;;;;5075742;28;20263;-41
2022/03/16 07:36:21;;;;;;;;;;;7.10;99.90;;;;;;5075661;28;19908;-41
2022/03/16 07:38:47;;;;;;;;;;;7.20;99.90;;;;;;5075421;28;19909;-42
2022/03/16 07:41:14;;;;;;;;;;;7.20;99.90;;;;;;5075490;28;19952;-42
2022/03/16 07:43:40;;;;;;;;;;;7.30;99.90;;;;;;5075180;28;19908;-41
2022/03/16 07:46:05;;;;;;;;;;;7.20;99.90;;;;;;5090830;28;20311;-43
2022/03/16 07:48:31;;;;;;;;;;;7.10;99.90;;;;;;5075191;28;19908;-41
2022/03/16 07:50:56;;;;;;;;;;;7.30;99.90;;;;;;5074932;28;20007;-43
2022/03/16 07:53:22;;;;;;;;;;;7.30;99.90;;;;;;5074598;28;19909;-41
2022/03/16 07:55:49;;;;;;;;;;;7.30;99.90;;;;;;5075281;28;19909;-42
2022/03/16 07:58:14;;;;;;;;;;;7.10;99.90;;;;;;5074675;28;19908;-41
2022/03/16 08:00:40;;;;;;;;;;;6.90;99.90;;;;;;5090244;28;19920;-42
2022/03/16 08:03:06;;;;;;;;;;;6.90;99.90;;;;;;5074619;28;20406;-40
2022/03/16 08:05:32;;;;;;;;;;;7.00;99.90;;;;;;5074517;28;19915;-40
2022/03/16 08:07:58;;;;;;;;;;;7.20;99.90;;;;;;5107326;28;19908;-42
2022/03/16 08:10:23;;;;;;;;;;;7.10;99.90;;;;;;5074663;28;19923;-41
2022/03/16 08:12:49;;;;;;;;;;;7.20;99.90;;;;;;5074863;28;20279;-41
2022/03/16 08:15:14;;;;;;;;;;;7.20;99.90;;;;;;5074562;28;20031;-41
2022/03/16 08:17:40;;;;;;;;;;;7.30;99.90;;;;;;5074533;28;19916;-41
2022/03/16 08:20:06;;;;;;;;;;;7.40;99.90;;;;;;5074397;28;19912;-41
2022/03/16 08:22:33;;;;;;;;;;;7.40;99.90;;;;;;5074372;28;19908;-42
2022/03/16 08:24:59;;;;;;;;;;;7.60;99.90;;;;;;5074504;28;19908;-42
2022/03/16 08:27:25;;;;;;;;;;;7.50;99.90;;;;;;5074315;28;20003;-42
2022/03/16 08:29:51;;;;;;;;;;;7.60;99.90;;;;;;5074146;28;19973;-42
2022/03/16 08:32:17;;;;;;;;;;;7.70;99.90;;;;;;5074538;28;20368;-41
2022/03/16 08:34:43;;;;;;;;;;;7.90;99.90;;;;;;5074250;28;19957;-41
2022/03/16 08:37:08;;;;;;;;;;;7.90;99.90;;;;;;5089937;28;20355;-42
2022/03/16 08:39:34;;;;;;;;;;;8.10;99.90;;;;;;5074159;28;19916;-41
2022/03/16 08:41:59;;;;;;;;;;;8.10;99.90;;;;;;5074447;28;19912;-41
2022/03/16 08:44:25;;;;;;;;;;;8.10;99.90;;;;;;5074355;28;19960;-41
2022/03/16 08:46:51;;;;;;;;;;;8.00;99.90;;;;;;5073832;28;20004;-42
2022/03/16 08:49:21;;;;;;;;;;;7.90;99.90;;;;;;5073615;28;19909;-42
2022/03/16 08:51:47;;;;;;;;;;;7.90;99.90;;;;;;5073990;28;20390;-42
2022/03/16 08:54:12;;;;;;;;;;;8.00;99.90;;;;;;5074137;28;19909;-41
2022/03/16 08:56:38;;;;;;;;;;;8.00;99.90;;;;;;5074272;28;19908;-42
2022/03/16 08:59:03;;;;;;;;;;;8.00;99.90;;;;;;5074076;28;19909;-42
2022/03/16 09:01:29;;;;;;;;;;;8.00;99.90;;;;;;5073405;28;19909;-42
2022/03/16 09:03:54;;;;;;;;;;;8.00;99.90;;;;;;5073885;28;19915;-40
2022/03/16 09:06:20;;;;;;;;;;;8.00;99.90;;;;;;5106209;28;19915;-42
2022/03/16 09:08:46;;;;;;;;;;;8.00;99.90;;;;;;5073554;28;19913;-40
2022/03/16 09:11:12;;;;;;;;;;;7.90;99.90;;;;;;5073843;28;19923;-41
2022/03/16 09:13:37;;;;;;;;;;;8.00;99.90;;;;;;5073615;28;19908;-42
2022/03/16 09:16:03;;;;;;;;;;;8.00;99.90;;;;;;5073587;28;19909;-41
2022/03/16 09:18:29;;;;;;;;;;;8.10;99.90;;;;;;5072970;28;19940;-41
2022/03/16 09:20:54;;;;;;;;;;;8.00;99.90;;;;;;5073425;28;19955;-41
2022/03/16 09:23:20;;;;;;;;;;;8.00;99.90;;;;;;5073509;28;19947;-40
2022/03/16 09:25:45;;;;;;;;;;;8.10;99.90;;;;;;5073599;28;19963;-41
2022/03/16 09:28:11;;;;;;;;;;;8.00;99.90;;;;;;5073641;28;19912;-41
2022/03/16 09:30:37;;;;;;;;;;;8.20;99.90;;;;;;5073323;28;19952;-41
2022/03/16 09:33:04;;;;;;;;;;;8.30;99.90;;;;;;5073042;28;19915;-41
2022/03/16 09:35:30;;;;;;;;;;;8.40;99.90;;;;;;5073394;28;19915;-41
2022/03/16 09:37:58;;;;;;;;;;;8.30;99.90;;;;;;5073202;28;19927;-42
2022/03/16 09:40:24;;;;;;;;;;;8.50;99.90;;;;;;5073301;28;19974;-41
2022/03/16 09:42:51;;;;;;;;;;;8.60;99.90;;;;;;5073295;28;19908;-41
2022/03/16 09:45:17;;;;;;;;;;;8.60;99.90;;;;;;5072955;28;19912;-42
2022/03/16 09:47:43;;;;;;;;;;;8.50;99.90;;;;;;5073233;28;19909;-42
2022/03/16 09:50:09;;;;;;;;;;;8.50;99.90;;;;;;5072583;28;19917;-42
2022/03/16 09:52:34;;;;;;;;;;;8.60;99.90;;;;;;5072869;28;20276;-42
2022/03/16 09:55:01;;;;;;;;;;;8.70;99.90;;;;;;5073525;28;19908;-45
2022/03/16 09:57:27;;;;;;;;;;;8.70;99.90;;;;;;5072123;28;19908;-43
2022/03/16 09:59:52;;;;;;;;;;;8.60;99.90;;;;;;5072533;28;20270;-41
2022/03/16 10:02:21;;;;;;;;;;;8.60;99.90;;;;;;5072971;28;19932;-42
2022/03/16 10:04:47;;;;;;;;;;;8.60;99.90;;;;;;5073173;28;19926;-42
2022/03/16 10:07:12;;;;;;;;;;;8.50;99.90;;;;;;5072954;28;19975;-41
2022/03/16 10:15:12;;;;;;;;;;;8.40;99.90;;;;;;5072663;28;19920;-42
2022/03/16 10:17:44;;;;;;;;;;;8.50;99.90;;;;;;5072984;28;19908;-41
2022/03/16 10:20:29;;;;;;;;;;;8.50;99.90;;;;;;5071810;28;20330;-41
2022/03/16 10:23:14;;;;;;;;;;;8.50;99.90;;;;;;5072802;28;19928;-41
2022/03/16 10:25:52;;;;;;;;;;;8.50;99.90;;;;;;5072768;28;19931;-41
2022/03/16 10:28:19;;;;;;;;;;;8.60;99.90;;;;;;5074271;28;20314;-42
2022/03/16 10:30:52;;;;;;;;;;;8.60;99.90;;;;;;5076856;28;19947;-41
2022/03/16 10:33:19;;;;;;;;;;;8.60;99.90;;;;;;5076679;28;19980;-41
2022/03/16 10:35:57;;;;;;;;;;;8.60;99.90;;;;;;5076340;28;20021;-42
2022/03/16 10:38:24;;;;;;;;;;;8.50;99.90;;;;;;5076760;28;19908;-41
2022/03/16 10:40:49;;;;;;;;;;;8.60;99.90;;;;;;5076804;28;19940;-41
2022/03/16 10:49:00;;;;;;;;;;;8.80;99.90;;;;;;5076111;28;19915;-41
2022/03/16 10:51:25;;;;;;;;;;;9.00;99.90;;;;;;5076294;28;19916;-41
2022/03/16 10:53:52;;;;;;;;;;;9.20;99.90;;;;;;5076156;28;19908;-42
2022/03/16 10:56:19;;;;;;;;;;;9.20;99.90;;;;;;5076279;28;19914;-41
2022/03/16 10:58:45;;;;;;;;;;;9.50;99.90;;;;;;5076043;28;20244;-41
2022/03/16 11:01:12;;;;;;;;;;;9.80;99.90;;;;;;5076122;28;19943;-42
2022/03/16 11:03:41;;;;;;;;;;;9.80;99.90;;;;;;5075842;28;19908;-42
2022/03/16 11:06:08;;;;;;;;;;;9.80;99.90;;;;;;5075348;28;20333;-42
2022/03/16 11:08:36;;;;;;;;;;;9.60;99.90;;;;;;5075694;28;20075;-42
2022/03/16 11:13:28;;;;;;;;;;;9.60;99.90;;;;;;5075363;28;20328;-41
2022/03/16 11:13:49;;;;;;;;;;;9.60;99.90;;;;;;5075421;28;19909;-42
2022/03/16 11:16:19;;;;;;;;;;;9.70;99.90;;;;;;5075816;28;20323;-41
2022/03/16 11:18:46;;;;;;;;;;;10.00;99.90;;;;;;5075388;28;20137;-41
2022/03/16 11:21:13;;;;;;;;;;;10.20;99.90;;;;;;5075564;28;20321;-42
2022/03/16 11:26:35;;;;;;;;;;;10.30;99.90;;;;;;5075118;28;19932;-42
2022/03/16 11:29:07;;;;;;;;;;;10.10;99.90;;;;;;5075093;28;19947;-41
2022/03/16 11:31:34;;;;;;;;;;;10.50;99.90;;;;;;5075354;28;19974;-42
2022/03/16 11:34:02;;;;;;;;;;;10.80;99.90;;;;;;5075023;28;20342;-42
2022/03/16 11:36:30;;;;;;;;;;;11.10;99.90;;;;;;5075411;28;19908;-42
2022/03/16 11:38:56;;;;;;;;;;;11.40;99.90;;;;;;5075068;28;19917;-41
2022/03/16 11:41:26;;;;;;;;;;;11.60;99.90;;;;;;5074653;28;19908;-42
2022/03/16 11:44:10;;;;;;;;;;;11.60;99.90;;;;;;5075180;28;20285;-42
2022/03/16 11:46:39;;;;;;;;;;;11.50;99.90;;;;;;5074324;28;20355;-41
2022/03/16 11:49:04;;;;;;;;;;;11.60;99.90;;;;;;5075240;28;19908;-42
2022/03/16 11:51:30;;;;;;;;;;;11.50;99.90;;;;;;5074856;28;19985;-42
2022/03/16 11:54:00;;;;;;;;;;;11.30;99.90;;;;;;5075012;28;19939;-41
2022/03/16 11:56:36;;;;;;;;;;;11.30;99.90;;;;;;5074973;28;19919;-42
2022/03/16 11:59:16;;;;;;;;;;;11.20;99.90;;;;;;5075537;28;19947;-41
2022/03/16 12:01:58;;;;;;;;;;;11.10;99.90;;;;;;5074954;28;19908;-41
2022/03/16 12:04:31;;;;;;;;;;;10.90;99.90;;;;;;5073567;28;20007;-43
2022/03/16 12:07:02;;;;;;;;;;;11.10;99.90;;;;;;5073826;28;19912;-41
2022/03/16 12:09:40;;;;;;;;;;;10.90;99.90;;;;;;5074472;28;19916;-41
2022/03/16 12:14:57;;;;;;;;;;;10.90;99.90;;;;;;5074407;28;19931;-41
2022/03/16 12:17:23;;;;;;;;;;;11.00;99.90;;;;;;5074481;28;19948;-41
2022/03/16 12:20:10;;;;;;;;;;;10.90;99.90;;;;;;5074545;28;19975;-42
2022/03/16 12:22:38;;;;;;;;;;;10.80;99.90;;;;;;5090012;28;20044;-41
2022/03/16 12:25:25;;;;;;;;;;;10.80;99.90;;;;;;5074049;28;20079;-42
2022/03/16 12:30:52;;;;;;;;;;;11.40;99.90;;;;;;5057763;28;19925;-42
2022/03/16 12:33:22;;;;;;;;;;;11.90;99.90;;;;;;5072814;28;19916;-41
2022/03/16 12:35:49;;;;;;;;;;;12.30;99.90;;;;;;5074378;28;19908;-41
2022/03/16 12:38:15;;;;;;;;;;;12.70;99.90;;;;;;5072420;28;19969;-42
2022/03/16 12:43:28;;;;;;;;;;;13.50;99.90;;;;;;5074094;28;19915;-41
2022/03/16 12:45:59;;;;;;;;;;;13.50;99.90;;;;;;5073898;28;19957;-40
2022/03/16 12:48:26;;;;;;;;;;;13.60;99.90;;;;;;5074184;28;19915;-41
2022/03/16 12:50:51;;;;;;;;;;;13.40;99.90;;;;;;5074036;28;19912;-41
2022/03/16 12:53:32;;;;;;;;;;;13.80;99.90;;;;;;5073725;28;20196;-41
2022/03/16 12:55:58;;;;;;;;;;;13.80;99.90;;;;;;5073569;28;20386;-42
2022/03/16 12:58:24;;;;;;;;;;;13.90;99.90;;;;;;5073838;28;19909;-41
2022/03/16 13:00:59;;;;;;;;;;;13.90;99.90;;;;;;5073329;28;19909;-41
2022/03/16 13:03:24;;;;;;;;;;;13.60;99.90;;;;;;5073291;28;19908;-43
2022/03/16 13:05:52;;;;;;;;;;;13.60;99.90;;;;;;5073428;28;20236;-40
2022/03/16 13:08:18;;;;;;;;;;;13.60;99.90;;;;;;5073375;28;19915;-42
2022/03/16 13:13:27;;;;;;;;;;;13.70;99.90;;;;;;5073270;28;19967;-42
2022/03/16 13:15:53;;;;;;;;;;;13.60;99.90;;;;;;5073617;28;20351;-41
2022/03/16 13:18:32;;;;;;;;;;;13.40;99.90;;;;;;5073337;28;19915;-43
2022/03/16 13:20:57;;;;;;;;;;;13.50;99.90;;;;;;5073097;28;19908;-43
2022/03/16 13:23:31;;;;;;;;;;;13.00;99.90;;;;;;5073371;28;19966;-41
2022/03/16 13:26:10;;;;;;;;;;;12.40;99.90;;;;;;5073376;28;19908;-42
2022/03/16 13:28:40;;;;;;;;;;;12.10;99.90;;;;;;5073176;28;19919;-41
2022/03/16 13:31:05;;;;;;;;;;;11.70;99.90;;;;;;5073010;28;20431;-43
2022/03/16 13:33:32;;;;;;;;;;;11.50;99.90;;;;;;5073634;28;20003;-42
2022/03/16 13:36:09;;;;;;;;;;;11.40;99.90;;;;;;5072277;28;21634;-42
2022/03/16 13:38:37;;;;;;;;;;;11.30;99.90;;;;;;5072937;28;20082;-42
2022/03/16 13:41:12;;;;;;;;;;;11.70;99.90;;;;;;5073477;28;19909;-42
2022/03/16 13:43:38;;;;;;;;;;;12.10;99.90;;;;;;5073279;28;19970;-45
2022/03/16 13:46:09;;;;;;;;;;;12.30;99.90;;;;;;5072932;28;20270;-43
2022/03/16 13:48:38;;;;;;;;;;;12.30;99.90;;;;;;5073089;28;19908;-42
2022/03/16 13:51:06;;;;;;;;;;;12.50;99.90;;;;;;5072815;28;20374;-42
2022/03/16 13:53:47;;;;;;;;;;;12.70;99.90;;;;;;5073281;28;19912;-42
2022/03/16 13:56:17;;;;;;;;;;;12.60;99.90;;;;;;5073033;28;19908;-43
2022/03/16 13:58:43;;;;;;;;;;;12.50;99.90;;;;;;5073360;28;19913;-41
2022/03/16 14:01:18;;;;;;;;;;;12.40;99.90;;;;;;5073248;28;20007;-42
2022/03/16 14:03:44;;;;;;;;;;;12.10;99.90;;;;;;5101671;28;20335;-42
2022/03/16 14:06:14;;;;;;;;;;;12.10;99.90;;;;;;5097483;28;19908;-43
2022/03/16 14:08:40;;;;;;;;;;;11.90;99.90;;;;;;5097070;28;19908;-42
2022/03/16 14:11:05;;;;;;;;;;;11.90;99.90;;;;;;5096510;28;19927;-43
2022/03/16 14:13:40;;;;;;;;;;;11.80;99.90;;;;;;5097088;28;19912;-43
2022/03/16 14:16:13;;;;;;;;;;;11.70;99.90;;;;;;5097072;28;19948;-42
2022/03/16 14:18:38;;;;;;;;;;;11.80;99.90;;;;;;5096568;28;19970;-43
2022/03/16 14:21:04;;;;;;;;;;;11.90;99.90;;;;;;5097236;28;20368;-42
2022/03/16 14:23:30;;;;;;;;;;;11.80;99.90;;;;;;5097265;28;19908;-41
2022/03/16 14:25:57;;;;;;;;;;;11.80;99.90;;;;;;5096685;28;20090;-42
2022/03/16 14:28:23;;;;;;;;;;;11.70;99.90;;;;;;5097133;28;19908;-43
2022/03/16 14:30:49;;;;;;;;;;;11.60;99.90;;;;;;5095457;28;19973;-43
2022/03/16 14:33:26;;;;;;;;;;;11.70;99.90;;;;;;5095040;28;19950;-42
2022/03/16 14:35:55;;;;;;;;;;;11.60;99.90;;;;;;5097070;28;20327;-42
2022/03/16 14:38:22;;;;;;;;;;;11.60;99.90;;;;;;5096511;28;19908;-42
2022/03/16 14:40:54;;;;;;;;;;;11.60;99.90;;;;;;5096704;28;20303;-43
2022/03/16 14:43:21;;;;;;;;;;;11.60;99.90;;;;;;5096705;28;19925;-42
2022/03/16 14:45:46;;;;;;;;;;;11.60;99.90;;;;;;5096452;28;19959;-42
2022/03/16 14:48:12;;;;;;;;;;;11.60;99.90;;;;;;5096407;28;19954;-42
2022/03/16 14:50:37;;;;;;;;;;;11.50;99.90;;;;;;5095196;28;20027;-43